createdAt,value
2022-08-08T00:11:20.620Z,100193.94
2022-08-08T00:26:33.312Z,100195.66
2022-08-08T00:42:31.398Z,100210.41
2022-08-08T00:57:56.952Z,100202.34
2022-08-08T01:13:14.970Z,100206.31
2022-08-08T01:28:41.675Z,100198.56
2022-08-08T01:44:13.146Z,100208.88
2022-08-08T02:00:02.263Z,100221.94
2022-08-08T02:15:11.240Z,100238.31
2022-08-08T02:30:24.800Z,100243.06
2022-08-08T02:46:21.570Z,100245.03
2022-08-08T03:01:51.169Z,100258.19
2022-08-08T03:17:05.880Z,100272.38
2022-08-08T03:32:30.675Z,100286.31
2022-08-08T03:47:45.523Z,100292.69
2022-08-08T04:03:03.860Z,100303.81
2022-08-08T04:18:06.404Z,100313.94
2022-08-08T04:33:11.394Z,100328.47
2022-08-08T04:48:15.062Z,100330.41
2022-08-08T05:03:19.038Z,100337.75
2022-08-08T05:18:39.493Z,100350.47
2022-08-08T05:33:44.216Z,100360.06
2022-08-08T05:48:54.298Z,100361.03
2022-08-08T06:04:07.912Z,100359.34
2022-08-08T06:19:17.277Z,100362.25
2022-08-08T06:34:27.344Z,100361.41
2022-08-08T06:49:55.744Z,100369.81
2022-08-08T07:05:20.785Z,100372.28
2022-08-08T07:20:29.985Z,100387.44
2022-08-08T07:35:35.452Z,100384.13
2022-08-08T07:50:38.632Z,100386.59
2022-08-08T08:05:50.936Z,100380.38
2022-08-08T08:20:55.409Z,100390.72
2022-08-08T08:36:20.193Z,100392.38
2022-08-08T08:51:25.589Z,100394.88
2022-08-08T09:06:34.003Z,100387.00
2022-08-08T09:21:57.488Z,100382.38
2022-08-08T09:37:58.456Z,100378.88
2022-08-08T09:52:56.840Z,100370.97
2022-08-08T10:08:00.185Z,100371.31
2022-08-08T10:23:06.331Z,100368.00
2022-08-08T10:38:16.870Z,100346.59
2022-08-08T10:53:20.344Z,100347.38
2022-08-08T11:08:50.017Z,100340.25
2022-08-08T11:24:02.312Z,100334.88
2022-08-08T11:39:10.836Z,100327.97
2022-08-08T11:54:31.143Z,100332.31
2022-08-08T12:09:59.417Z,100328.53
2022-08-08T12:24:58.417Z,100320.78
2022-08-08T12:40:23.888Z,100315.50
2022-08-08T12:55:35.618Z,100313.78
2022-08-08T13:10:58.302Z,100312.41
2022-08-08T13:26:04.163Z,100320.59
2022-08-08T13:41:16.720Z,100309.84
2022-08-08T13:56:41.529Z,100316.44
2022-08-08T14:11:48.570Z,100308.78
2022-08-08T14:26:55.274Z,100313.97
2022-08-08T14:42:07.655Z,100313.97
2022-08-08T14:57:09.821Z,100312.91
2022-08-08T15:12:13.193Z,100313.72
2022-08-08T15:27:58.269Z,100309.25
2022-08-08T15:42:38.956Z,100310.03
2022-08-08T15:57:41.906Z,100318.22
2022-08-08T16:13:11.481Z,100316.13
2022-08-08T16:28:06.082Z,100325.94
2022-08-08T16:43:25.235Z,100324.31
2022-08-08T16:58:31.647Z,100341.75
2022-08-08T17:13:41.323Z,100347.16
2022-08-08T17:28:51.853Z,100343.22
2022-08-08T17:44:00.951Z,100365.34
2022-08-08T17:59:04.583Z,100374.47
2022-08-08T18:14:22.065Z,100368.75
2022-08-08T18:29:33.267Z,100375.09
2022-08-08T18:44:36.349Z,100372.84
2022-08-08T18:59:40.851Z,100372.81
2022-08-08T19:14:42.891Z,100391.16
2022-08-08T19:29:46.001Z,100388.50
2022-08-08T19:44:50.601Z,100399.72
2022-08-08T19:59:53.213Z,100402.25
2022-08-08T20:14:55.950Z,100402.75
2022-08-08T20:30:00.975Z,100404.00
2022-08-08T20:45:08.927Z,100396.31
2022-08-08T21:00:11.488Z,100402.97
2022-08-08T21:15:16.453Z,100400.06
2022-08-08T21:30:36.323Z,100403.19
2022-08-08T21:48:00.374Z,100406.56
2022-08-08T22:01:04.159Z,100398.25
2022-08-08T22:16:06.459Z,100393.97
2022-08-08T22:31:11.761Z,100390.50
2022-08-08T22:46:15.164Z,100398.59
2022-08-08T23:02:02.388Z,100388.00
2022-08-08T23:16:43.328Z,100388.50
2022-08-08T23:31:46.257Z,100377.94
2022-08-08T23:48:59.776Z,100377.91
